createdAt,value
2018-11-03T00:01:00.745Z,9.47
2018-11-03T00:03:28.634Z,9.57
2018-11-03T00:05:56.936Z,8.93
2018-11-03T00:08:25.228Z,9.03
2018-11-03T00:10:53.329Z,9.87
2018-11-03T00:13:21.256Z,9.80
2018-11-03T00:15:49.217Z,9.80
2018-11-03T00:18:17.266Z,8.97
2018-11-03T00:20:45.226Z,9.27
2018-11-03T00:23:13.291Z,10.40
2018-11-03T00:25:41.267Z,10.00
2018-11-03T00:28:09.363Z,9.67
2018-11-03T00:30:37.365Z,9.33
2018-11-03T00:33:05.585Z,10.50
2018-11-03T00:35:33.526Z,8.40
2018-11-03T00:38:01.468Z,9.27
2018-11-03T00:40:29.463Z,8.83
2018-11-03T00:42:57.575Z,9.53
2018-11-03T00:45:25.501Z,9.67
2018-11-03T00:47:53.424Z,8.50
2018-11-03T00:50:21.425Z,8.70
2018-11-03T00:52:49.341Z,9.50
2018-11-03T00:55:17.311Z,8.57
2018-11-03T00:57:45.213Z,8.93
2018-11-03T01:00:15.301Z,9.17
2018-11-03T01:02:44.383Z,10.43
2018-11-03T01:05:12.821Z,8.60
2018-11-03T01:07:41.592Z,10.13
2018-11-03T01:10:09.768Z,8.93
2018-11-03T01:12:38.508Z,9.40
2018-11-03T01:15:08.289Z,9.13
2018-11-03T01:17:36.204Z,8.80
2018-11-03T01:20:04.851Z,9.03
2018-11-03T01:22:32.757Z,9.20
2018-11-03T01:25:00.725Z,9.57
2018-11-03T01:27:28.660Z,9.57
2018-11-03T01:29:56.600Z,9.67
2018-11-03T01:32:24.591Z,9.00
2018-11-03T01:34:52.582Z,9.50
2018-11-03T01:37:20.537Z,10.00
2018-11-03T01:39:48.513Z,9.53
2018-11-03T01:42:16.474Z,9.17
2018-11-03T01:44:44.437Z,9.03
2018-11-03T01:47:12.386Z,9.63
2018-11-03T01:49:40.379Z,9.77
2018-11-03T01:52:08.309Z,9.13
2018-11-03T01:54:36.360Z,8.67
2018-11-03T01:57:04.492Z,9.27
2018-11-03T01:59:32.539Z,8.50
2018-11-03T02:02:00.524Z,8.80
2018-11-03T02:04:28.418Z,8.83
2018-11-03T02:06:56.344Z,8.77
2018-11-03T02:09:24.297Z,9.33
2018-11-03T02:11:52.389Z,9.83
2018-11-03T02:14:20.335Z,9.20
2018-11-03T02:16:48.458Z,9.60
2018-11-03T02:19:16.474Z,9.83
2018-11-03T02:21:44.507Z,8.53
2018-11-03T02:24:12.616Z,8.57
2018-11-03T02:26:40.624Z,8.67
2018-11-03T02:29:08.934Z,9.10
2018-11-03T02:31:37.152Z,8.63
2018-11-03T02:34:05.125Z,9.00
2018-11-03T02:36:33.136Z,9.00
2018-11-03T02:39:01.078Z,8.90
2018-11-03T02:41:29.348Z,10.07
2018-11-03T02:43:57.399Z,9.73
2018-11-03T02:46:25.301Z,9.07
2018-11-03T02:48:53.214Z,9.27
2018-11-03T02:51:21.161Z,8.70
2018-11-03T02:53:49.241Z,8.77
2018-11-03T02:56:17.240Z,9.27
2018-11-03T02:58:45.395Z,8.53
2018-11-03T03:01:13.361Z,9.00
2018-11-03T03:03:41.425Z,8.40
2018-11-03T03:06:09.343Z,9.80
2018-11-03T03:08:37.263Z,9.97
2018-11-03T03:11:05.292Z,9.53
2018-11-03T03:13:33.232Z,9.67
2018-11-03T03:16:01.195Z,9.07
2018-11-03T03:18:29.161Z,9.67
2018-11-03T03:20:57.091Z,9.10
2018-11-03T03:23:24.985Z,9.40
2018-11-03T03:25:53.029Z,9.70
2018-11-03T03:28:20.965Z,11.00
2018-11-03T03:30:48.900Z,9.30
2018-11-03T03:33:16.883Z,9.67
2018-11-03T03:35:44.923Z,9.60
2018-11-03T03:38:12.817Z,9.63
2018-11-03T03:40:40.856Z,9.27
2018-11-03T03:43:08.773Z,9.73
2018-11-03T03:45:36.751Z,10.37
2018-11-03T03:48:04.746Z,11.17
2018-11-03T03:50:32.707Z,9.60
2018-11-03T03:53:00.753Z,9.70
2018-11-03T03:55:28.734Z,10.27
2018-11-03T03:57:56.876Z,9.30
2018-11-03T04:00:24.945Z,9.90
2018-11-03T04:02:52.971Z,10.77
2018-11-03T04:05:20.928Z,9.13
2018-11-03T04:07:48.899Z,10.80
2018-11-03T04:10:16.955Z,9.97
2018-11-03T04:12:45.096Z,9.73
2018-11-03T04:15:13.126Z,9.63
2018-11-03T04:17:41.191Z,9.23
2018-11-03T04:20:09.164Z,9.63
2018-11-03T04:22:37.189Z,9.87
2018-11-03T04:25:05.446Z,9.43
2018-11-03T04:27:33.711Z,9.63
2018-11-03T04:30:01.674Z,9.83
2018-11-03T04:32:29.666Z,8.43
2018-11-03T04:34:57.782Z,10.70
2018-11-03T04:37:25.760Z,9.80
2018-11-03T04:39:54.053Z,10.10
2018-11-03T04:42:22.024Z,9.93
2018-11-03T04:44:50.223Z,9.07
2018-11-03T04:47:18.243Z,9.80
2018-11-03T04:49:46.283Z,10.03
2018-11-03T04:52:14.186Z,9.43
2018-11-03T04:54:42.135Z,9.90
2018-11-03T04:57:10.297Z,8.97
2018-11-03T04:59:38.578Z,9.83
2018-11-03T05:02:06.806Z,9.70
2018-11-03T05:04:34.732Z,8.67
2018-11-03T05:07:02.835Z,9.70
2018-11-03T05:09:30.793Z,9.73
2018-11-03T05:11:58.774Z,9.93
2018-11-03T05:14:26.664Z,9.27
2018-11-03T05:16:54.702Z,10.83
2018-11-03T05:19:22.691Z,10.83
2018-11-03T05:21:50.758Z,10.10
2018-11-03T05:24:18.919Z,11.60
2018-11-03T05:26:46.977Z,9.30
2018-11-03T05:29:15.017Z,8.97
2018-11-03T05:31:42.987Z,10.17
2018-11-03T05:34:11.322Z,10.37
2018-11-03T05:36:39.441Z,9.93
2018-11-03T05:39:09.732Z,9.97
2018-11-03T05:41:37.909Z,9.83
2018-11-03T05:44:05.874Z,9.87
2018-11-03T05:46:33.894Z,9.80
2018-11-03T05:49:02.113Z,9.57
2018-11-03T05:51:30.014Z,10.50
2018-11-03T05:53:57.984Z,9.17
2018-11-03T05:56:25.965Z,9.87
2018-11-03T05:58:54.196Z,9.60
2018-11-03T06:01:22.172Z,9.17
2018-11-03T06:03:50.472Z,11.17
2018-11-03T06:06:18.467Z,10.83
2018-11-03T06:08:46.699Z,10.43
2018-11-03T06:11:14.941Z,10.83
2018-11-03T06:13:43.192Z,11.00
2018-11-03T06:16:11.660Z,9.27
2018-11-03T06:18:40.545Z,10.50
2018-11-03T06:21:09.057Z,10.37
2018-11-03T06:23:37.360Z,9.57
2018-11-03T06:26:05.878Z,10.27
2018-11-03T06:28:33.991Z,10.17
2018-11-03T06:31:02.210Z,10.37
2018-11-03T06:33:30.342Z,12.43
2018-11-03T06:35:58.388Z,10.43
2018-11-03T06:38:26.440Z,9.80
2018-11-03T06:40:54.542Z,9.90
2018-11-03T06:43:22.715Z,12.03
2018-11-03T06:45:50.859Z,11.13
2018-11-03T06:48:18.876Z,10.93
2018-11-03T06:50:47.136Z,12.77
2018-11-03T06:53:15.460Z,13.87
2018-11-03T06:55:43.397Z,13.73
2018-11-03T06:58:12.661Z,12.97
2018-11-03T07:00:40.867Z,11.93
2018-11-03T07:03:08.900Z,11.00
2018-11-03T07:05:36.989Z,10.63
2018-11-03T07:08:05.512Z,11.00
2018-11-03T07:10:33.626Z,10.70
2018-11-03T07:13:01.961Z,10.63
2018-11-03T07:15:29.959Z,10.93
2018-11-03T07:17:57.900Z,10.17
2018-11-03T07:20:28.682Z,10.07
2018-11-03T07:22:56.971Z,10.80
2018-11-03T07:25:25.176Z,11.17
2018-11-03T07:27:53.408Z,12.43
2018-11-03T07:30:21.712Z,12.77
2018-11-03T07:32:49.881Z,12.43
2018-11-03T07:35:18.076Z,12.07
2018-11-03T07:37:46.207Z,11.17
2018-11-03T07:40:15.238Z,11.70
2018-11-03T07:42:43.575Z,11.83
2018-11-03T07:45:11.682Z,12.63
2018-11-03T07:47:39.633Z,9.87
2018-11-03T07:50:09.789Z,10.73
2018-11-03T07:52:38.068Z,10.73
2018-11-03T07:55:07.449Z,10.73
2018-11-03T07:57:35.883Z,10.93
2018-11-03T08:00:04.525Z,11.57
2018-11-03T08:02:32.798Z,11.23
2018-11-03T08:05:00.948Z,10.80
2018-11-03T08:07:29.142Z,10.37
2018-11-03T08:09:57.431Z,10.73
2018-11-03T08:12:25.501Z,10.30
2018-11-03T08:14:53.510Z,10.93
2018-11-03T08:17:21.490Z,10.53
2018-11-03T08:19:49.805Z,10.47
2018-11-03T08:22:17.867Z,9.60
2018-11-03T08:24:45.913Z,10.70
2018-11-03T08:27:14.020Z,9.50
2018-11-03T08:29:41.956Z,9.93
2018-11-03T08:32:09.984Z,9.47
2018-11-03T08:34:38.021Z,10.03
2018-11-03T08:37:06.128Z,10.07
2018-11-03T08:39:34.128Z,9.97
2018-11-03T08:42:02.136Z,10.67
2018-11-03T08:44:30.093Z,10.70
2018-11-03T08:46:58.141Z,9.37
2018-11-03T08:49:26.083Z,10.17
2018-11-03T08:51:54.048Z,10.47
2018-11-03T08:54:22.013Z,10.77
2018-11-03T08:56:50.036Z,9.90
2018-11-03T08:59:18.183Z,10.13
2018-11-03T09:01:46.228Z,10.43
2018-11-03T09:04:14.193Z,9.67
2018-11-03T09:06:42.322Z,9.60
2018-11-03T09:09:10.530Z,11.10
2018-11-03T09:11:38.575Z,9.60
2018-11-03T09:14:06.964Z,10.27
2018-11-03T09:16:35.074Z,8.97
2018-11-03T09:19:03.347Z,9.70
2018-11-03T09:21:31.568Z,9.43
2018-11-03T09:23:59.641Z,10.20
2018-11-03T09:26:27.665Z,9.47
2018-11-03T09:28:55.692Z,9.30
2018-11-03T09:31:23.744Z,8.93
2018-11-03T09:33:51.745Z,10.13
2018-11-03T09:36:19.947Z,8.90
2018-11-03T09:38:48.184Z,9.57
2018-11-03T09:41:16.004Z,9.17
2018-11-03T09:43:44.138Z,8.40
2018-11-03T09:46:12.144Z,8.23
2018-11-03T09:48:40.232Z,8.60
2018-11-03T09:51:08.390Z,8.97
2018-11-03T09:53:36.553Z,8.70
2018-11-03T09:56:04.667Z,7.93
2018-11-03T09:58:32.946Z,8.13
2018-11-03T10:01:01.024Z,8.53
2018-11-03T10:03:29.165Z,8.80
2018-11-03T10:05:57.398Z,8.40
2018-11-03T10:08:25.773Z,8.37
2018-11-03T10:10:54.002Z,8.60
2018-11-03T10:13:22.250Z,9.93
2018-11-03T10:15:50.407Z,8.90
2018-11-03T10:18:18.426Z,8.33
2018-11-03T10:20:46.667Z,8.47
2018-11-03T10:23:14.956Z,8.57
2018-11-03T10:25:43.180Z,8.30
2018-11-03T10:28:11.588Z,8.33
2018-11-03T10:30:39.743Z,7.87
2018-11-03T10:33:07.884Z,8.20
2018-11-03T10:35:36.068Z,8.67
2018-11-03T10:38:04.521Z,8.33
2018-11-03T10:40:32.834Z,8.97
2018-11-03T10:43:01.111Z,8.83
2018-11-03T10:45:29.294Z,8.73
2018-11-03T10:47:57.495Z,8.17
2018-11-03T10:50:25.748Z,8.17
2018-11-03T10:52:54.446Z,8.03
2018-11-03T10:55:22.683Z,7.40
2018-11-03T10:57:50.962Z,8.30
2018-11-03T11:00:25.758Z,7.53
2018-11-03T11:03:00.055Z,7.17
2018-11-03T11:05:34.455Z,7.60
2018-11-03T11:08:08.900Z,7.30
2018-11-03T11:10:42.634Z,7.77
2018-11-03T11:13:18.911Z,7.00
2018-11-03T11:15:48.199Z,6.77
2018-11-03T11:18:16.632Z,7.50
2018-11-03T11:20:45.737Z,7.00
2018-11-03T11:23:14.306Z,7.07
2018-11-03T11:25:42.823Z,6.87
2018-11-03T11:28:11.074Z,7.30
2018-11-03T11:30:41.646Z,7.20
2018-11-03T11:33:11.604Z,7.27
2018-11-03T11:35:40.125Z,6.73
2018-11-03T11:38:09.632Z,5.87
2018-11-03T11:40:38.771Z,7.67
2018-11-03T11:43:09.535Z,7.00
2018-11-03T11:45:38.008Z,6.13
2018-11-03T11:48:06.382Z,6.47
2018-11-03T11:50:34.678Z,6.70
2018-11-03T11:53:03.067Z,6.00
2018-11-03T11:55:31.663Z,6.33
2018-11-03T11:58:00.126Z,7.07
2018-11-03T12:00:28.590Z,6.83
2018-11-03T12:02:57.089Z,6.43
2018-11-03T12:05:25.409Z,6.53
2018-11-03T12:07:54.097Z,7.47
2018-11-03T12:10:22.614Z,6.67
2018-11-03T12:12:51.403Z,6.50
2018-11-03T12:15:19.832Z,7.43
2018-11-03T12:17:48.174Z,7.03
2018-11-03T12:20:16.519Z,6.37
2018-11-03T12:22:44.913Z,7.13
2018-11-03T12:25:13.265Z,6.93
2018-11-03T12:27:42.175Z,7.13
2018-11-03T12:30:13.146Z,6.80
2018-11-03T12:32:41.595Z,7.03
2018-11-03T12:35:10.775Z,6.83
2018-11-03T12:37:39.922Z,7.63
2018-11-03T12:40:11.725Z,7.00
2018-11-03T12:42:40.057Z,7.17
2018-11-03T12:45:09.185Z,7.27
2018-11-03T12:47:37.542Z,7.30
2018-11-03T12:50:07.557Z,7.43
2018-11-03T12:52:36.202Z,7.00
2018-11-03T12:55:05.107Z,7.23
2018-11-03T12:57:33.370Z,6.97
2018-11-03T13:00:01.758Z,6.60
2018-11-03T13:02:30.483Z,6.17
2018-11-03T13:04:58.919Z,5.90
2018-11-03T13:07:27.080Z,6.37
2018-11-03T13:09:55.526Z,6.23
2018-11-03T13:12:23.887Z,6.47
2018-11-03T13:14:52.366Z,6.57
2018-11-03T13:17:21.613Z,7.20
2018-11-03T13:19:51.087Z,6.10
2018-11-03T13:22:19.486Z,6.07
2018-11-03T13:24:47.642Z,6.33
2018-11-03T13:27:15.806Z,6.77
2018-11-03T13:29:44.018Z,6.73
2018-11-03T13:32:12.229Z,7.57
2018-11-03T13:34:40.595Z,7.20
2018-11-03T13:37:08.791Z,7.93
2018-11-03T13:39:37.095Z,7.40
2018-11-03T13:42:05.538Z,7.23
2018-11-03T13:44:34.185Z,7.23
2018-11-03T13:47:02.779Z,8.23
2018-11-03T13:49:31.497Z,7.93
2018-11-03T13:51:59.930Z,7.23
2018-11-03T13:54:28.059Z,6.87
2018-11-03T13:56:56.289Z,6.90
2018-11-03T13:59:24.437Z,7.07
2018-11-03T14:01:52.672Z,7.00
2018-11-03T14:04:20.887Z,6.80
2018-11-03T14:06:49.001Z,7.03
2018-11-03T14:09:17.273Z,6.80
2018-11-03T14:11:45.593Z,6.87
2018-11-03T14:14:13.934Z,6.97
2018-11-03T14:16:42.371Z,7.27
2018-11-03T14:19:10.631Z,6.40
2018-11-03T14:21:38.892Z,7.23
2018-11-03T14:24:07.042Z,6.80
2018-11-03T14:26:35.259Z,7.30
2018-11-03T14:29:03.595Z,6.80
2018-11-03T14:31:32.052Z,6.53
2018-11-03T14:34:00.482Z,6.63
2018-11-03T14:36:28.864Z,6.90
2018-11-03T14:38:57.900Z,6.90
2018-11-03T14:41:26.464Z,6.60
2018-11-03T14:43:54.869Z,7.77
2018-11-03T14:46:23.739Z,7.57
2018-11-03T14:48:52.094Z,7.57
2018-11-03T14:51:20.491Z,6.80
2018-11-03T14:53:49.202Z,7.10
2018-11-03T14:56:17.605Z,7.13
2018-11-03T14:58:46.919Z,6.93
2018-11-03T15:01:15.259Z,7.67
2018-11-03T15:03:43.586Z,8.37
2018-11-03T15:06:11.714Z,7.13
2018-11-03T15:08:40.145Z,6.90
2018-11-03T15:11:08.843Z,7.20
2018-11-03T15:13:37.173Z,6.50
2018-11-03T15:16:05.837Z,6.67
2018-11-03T15:18:34.158Z,6.20
2018-11-03T15:21:03.116Z,6.07
2018-11-03T15:23:31.224Z,6.57
2018-11-03T15:25:59.469Z,5.50
2018-11-03T15:28:27.824Z,5.83
2018-11-03T15:30:55.948Z,5.50
2018-11-03T15:33:24.093Z,5.97
2018-11-03T15:35:52.469Z,6.50
2018-11-03T15:38:20.720Z,6.30
2018-11-03T15:40:49.550Z,5.67
2018-11-03T15:43:18.133Z,6.20
2018-11-03T15:45:46.486Z,5.17
2018-11-03T15:48:14.980Z,5.10
2018-11-03T15:50:49.136Z,5.43
2018-11-03T15:53:17.607Z,5.73
2018-11-03T15:55:45.931Z,4.90
2018-11-03T15:58:14.440Z,4.80
2018-11-03T16:00:43.017Z,4.60
2018-11-03T16:03:11.239Z,4.37
2018-11-03T16:05:39.432Z,4.37
2018-11-03T16:08:07.584Z,4.33
2018-11-03T16:10:35.745Z,3.93
2018-11-03T16:13:04.069Z,3.57
2018-11-03T16:15:32.433Z,4.60
2018-11-03T16:18:01.199Z,4.23
2018-11-03T16:20:30.281Z,5.07
2018-11-03T16:22:58.748Z,3.67
2018-11-03T16:25:27.093Z,4.67
2018-11-03T16:27:55.314Z,4.30
2018-11-03T16:30:23.908Z,4.23
2018-11-03T16:32:52.260Z,3.47
2018-11-03T16:35:20.715Z,3.80
2018-11-03T16:37:48.864Z,3.23
2018-11-03T16:40:17.566Z,3.30
2018-11-03T16:42:46.086Z,4.10
2018-11-03T16:45:15.631Z,3.43
2018-11-03T16:47:43.996Z,3.40
2018-11-03T16:50:13.814Z,3.33
2018-11-03T16:52:42.471Z,3.40
2018-11-03T16:55:11.818Z,3.17
2018-11-03T16:57:40.091Z,2.87
2018-11-03T17:00:10.632Z,3.47
2018-11-03T17:02:39.097Z,3.00
2018-11-03T17:05:07.999Z,3.20
2018-11-03T17:07:36.297Z,5.77
2018-11-03T17:10:06.540Z,5.17
2018-11-03T17:12:34.978Z,3.53
2018-11-03T17:15:03.220Z,3.63
2018-11-03T17:17:31.507Z,3.63
2018-11-03T17:20:00.273Z,2.83
2018-11-03T17:22:28.771Z,4.03
2018-11-03T17:24:57.211Z,3.73
2018-11-03T17:27:25.892Z,4.33
2018-11-03T17:29:54.250Z,3.77
2018-11-03T17:32:22.434Z,3.87
2018-11-03T17:34:50.688Z,4.17
2018-11-03T17:37:19.112Z,3.67
2018-11-03T17:39:47.482Z,3.70
2018-11-03T17:42:15.670Z,4.00
2018-11-03T17:44:43.857Z,4.03
2018-11-03T17:47:12.048Z,4.63
2018-11-03T17:49:40.374Z,3.93
2018-11-03T17:52:08.604Z,3.97
2018-11-03T17:54:37.925Z,4.40
2018-11-03T17:57:06.061Z,3.23
2018-11-03T17:59:34.270Z,4.63
2018-11-03T18:02:02.805Z,4.20
2018-11-03T18:04:31.173Z,3.90
2018-11-03T18:06:59.798Z,4.60
2018-11-03T18:09:28.549Z,4.50
2018-11-03T18:11:56.798Z,3.93
2018-11-03T18:14:25.317Z,4.17
2018-11-03T18:16:53.795Z,4.70
2018-11-03T18:19:22.053Z,4.10
2018-11-03T18:21:50.584Z,4.87
2018-11-03T18:24:18.859Z,4.30
2018-11-03T18:26:47.482Z,4.23
2018-11-03T18:29:15.813Z,4.17
2018-11-03T18:31:44.609Z,3.90
2018-11-03T18:34:13.145Z,4.43
2018-11-03T18:36:41.692Z,4.33
2018-11-03T18:39:11.225Z,4.93
2018-11-03T18:41:39.917Z,4.90
2018-11-03T18:44:08.934Z,4.53
2018-11-03T18:46:37.405Z,4.87
2018-11-03T18:49:05.858Z,5.40
2018-11-03T18:51:34.365Z,5.50
2018-11-03T18:54:02.846Z,4.73
2018-11-03T18:56:31.414Z,5.73
2018-11-03T18:58:59.830Z,4.33
2018-11-03T19:01:28.197Z,5.10
2018-11-03T19:03:56.463Z,5.07
2018-11-03T19:06:24.864Z,5.83
2018-11-03T19:08:53.130Z,5.53
2018-11-03T19:11:21.423Z,4.87
2018-11-03T19:13:49.952Z,5.50
2018-11-03T19:16:18.287Z,4.97
2018-11-03T19:18:46.752Z,6.03
2018-11-03T19:21:15.225Z,5.13
2018-11-03T19:23:43.699Z,5.93
2018-11-03T19:26:12.155Z,6.13
2018-11-03T19:28:40.512Z,6.83
2018-11-03T19:31:09.114Z,5.80
2018-11-03T19:33:37.404Z,6.13
2018-11-03T19:36:06.298Z,5.77
2018-11-03T19:38:34.769Z,6.50
2018-11-03T19:41:02.976Z,6.87
2018-11-03T19:43:31.190Z,5.77
2018-11-03T19:45:59.332Z,6.50
2018-11-03T19:48:27.509Z,5.87
2018-11-03T19:50:55.825Z,6.67
2018-11-03T19:53:24.007Z,6.30
2018-11-03T19:55:52.394Z,6.67
2018-11-03T19:58:20.675Z,6.47
2018-11-03T20:00:48.881Z,5.73
2018-11-03T20:03:17.156Z,7.33
2018-11-03T20:05:45.328Z,7.60
2018-11-03T20:08:13.451Z,7.10
2018-11-03T20:10:41.795Z,6.40
2018-11-03T20:13:09.963Z,6.30
2018-11-03T20:15:38.143Z,7.10
2018-11-03T20:18:06.439Z,6.37
2018-11-03T20:20:34.493Z,7.33
2018-11-03T20:23:02.754Z,6.43
2018-11-03T20:25:30.860Z,5.90
2018-11-03T20:27:59.050Z,6.37
2018-11-03T20:30:27.291Z,7.03
2018-11-03T20:32:55.850Z,7.77
2018-11-03T20:35:24.112Z,7.00
2018-11-03T20:37:52.273Z,6.30
2018-11-03T20:40:20.481Z,8.30
2018-11-03T20:42:48.739Z,10.03
2018-11-03T20:45:17.055Z,11.33
2018-11-03T20:47:45.206Z,12.20
2018-11-03T20:50:14.232Z,11.57
2018-11-03T20:52:42.516Z,10.00
2018-11-03T20:55:11.554Z,11.37
2018-11-03T20:57:40.038Z,11.50
2018-11-03T21:00:10.323Z,12.30
2018-11-03T21:02:38.571Z,12.37
2018-11-03T21:05:07.658Z,9.93
2018-11-03T21:07:35.828Z,10.53
2018-11-03T21:10:04.277Z,11.83
2018-11-03T21:12:32.450Z,13.07
2018-11-03T21:15:00.559Z,12.40
2018-11-03T21:17:28.819Z,11.23
2018-11-03T21:19:57.113Z,11.70
2018-11-03T21:22:25.329Z,10.93
2018-11-03T21:24:53.504Z,12.73
2018-11-03T21:27:21.676Z,11.00
2018-11-03T21:29:49.952Z,11.17
2018-11-03T21:32:18.249Z,12.07
2018-11-03T21:34:46.461Z,13.53
2018-11-03T21:37:14.596Z,10.17
2018-11-03T21:39:42.828Z,9.60
2018-11-03T21:42:11.003Z,9.63
2018-11-03T21:44:39.450Z,9.70
2018-11-03T21:47:07.827Z,10.10
2018-11-03T21:49:35.885Z,10.30
2018-11-03T21:52:04.369Z,9.80
2018-11-03T21:54:32.610Z,9.57
2018-11-03T21:57:01.575Z,9.43
2018-11-03T21:59:29.913Z,10.03
2018-11-03T22:01:58.033Z,9.43
2018-11-03T22:04:26.016Z,10.83
2018-11-03T22:06:53.991Z,10.17
2018-11-03T22:09:22.035Z,10.40
2018-11-03T22:11:50.056Z,10.47
2018-11-03T22:14:18.085Z,12.63
2018-11-03T22:16:46.116Z,14.73
2018-11-03T22:19:14.253Z,15.63
2018-11-03T22:21:42.215Z,17.97
2018-11-03T22:24:10.087Z,17.27
2018-11-03T22:26:38.012Z,16.07
2018-11-03T22:29:06.137Z,16.10
2018-11-03T22:31:34.103Z,18.47
2018-11-03T22:34:02.064Z,20.97
2018-11-03T22:36:30.240Z,18.57
2018-11-03T22:38:58.925Z,17.20
2018-11-03T22:41:27.023Z,18.30
2018-11-03T22:43:55.093Z,18.63
2018-11-03T22:46:23.075Z,17.77
2018-11-03T22:48:51.158Z,18.20
2018-11-03T22:51:19.214Z,17.53
2018-11-03T22:53:47.141Z,19.23
2018-11-03T22:56:15.162Z,17.23
2018-11-03T22:58:43.151Z,16.33
2018-11-03T23:01:11.043Z,17.87
2018-11-03T23:03:39.000Z,17.40
2018-11-03T23:06:07.031Z,16.93
2018-11-03T23:08:35.030Z,15.57
2018-11-03T23:11:03.055Z,16.87
2018-11-03T23:13:31.080Z,17.37
2018-11-03T23:15:59.367Z,17.20
2018-11-03T23:18:27.310Z,16.67
2018-11-03T23:20:55.273Z,15.80
2018-11-03T23:23:23.225Z,16.43
2018-11-03T23:25:51.121Z,16.40
2018-11-03T23:28:19.072Z,16.77
2018-11-03T23:30:46.982Z,15.73
2018-11-03T23:33:14.920Z,13.63
2018-11-03T23:35:42.840Z,14.50
2018-11-03T23:38:10.877Z,15.60
2018-11-03T23:40:38.769Z,14.77
2018-11-03T23:43:06.704Z,15.63
2018-11-03T23:45:34.596Z,14.57
2018-11-03T23:48:02.559Z,13.27
2018-11-03T23:50:30.558Z,13.67
2018-11-03T23:52:58.407Z,14.50
2018-11-03T23:55:26.345Z,14.50
2018-11-03T23:57:54.517Z,14.73
